createdAt,value
2017-02-17T00:00:32.400Z,42.19
2017-02-17T00:01:05.196Z,42.1
2017-02-17T00:01:37.981Z,42.29
2017-02-17T00:02:10.751Z,42.19
2017-02-17T00:02:43.529Z,42.19
2017-02-17T00:03:16.290Z,42.29
2017-02-17T00:03:49.061Z,42.19
2017-02-17T00:04:21.811Z,42.1
2017-02-17T00:04:54.577Z,42.27
2017-02-17T00:05:27.370Z,42.17
2017-02-17T00:06:00.138Z,42.29
2017-02-17T00:06:32.912Z,42.17
2017-02-17T00:07:05.670Z,42.27
2017-02-17T00:07:38.456Z,42.17
2017-02-17T00:08:11.257Z,42.29
2017-02-17T00:08:44.046Z,42.07
2017-02-17T00:09:16.861Z,42.36
2017-02-17T00:09:49.618Z,42.38
2017-02-17T00:10:22.404Z,42.29
2017-02-17T00:10:55.161Z,42.17
2017-02-17T00:11:27.958Z,42.29
2017-02-17T00:12:00.757Z,42.19
2017-02-17T00:12:33.524Z,42.1
2017-02-17T00:13:06.291Z,42.29
2017-02-17T00:13:39.071Z,42.27
2017-02-17T00:14:11.929Z,42.17
2017-02-17T00:14:44.693Z,42.36
2017-02-17T00:15:17.452Z,42.19
2017-02-17T00:15:50.272Z,42.38
2017-02-17T00:16:23.054Z,42.17
2017-02-17T00:16:55.829Z,42.38
2017-02-17T00:17:28.647Z,42.19
2017-02-17T00:18:01.430Z,42.19
2017-02-17T00:18:34.209Z,42.36
2017-02-17T00:19:06.977Z,42.17
2017-02-17T00:19:39.751Z,42.29
2017-02-17T00:20:12.517Z,42.38
2017-02-17T00:20:45.289Z,42.19
2017-02-17T00:21:18.068Z,42.17
2017-02-17T00:21:50.823Z,42.46
2017-02-17T00:22:23.619Z,42.36
2017-02-17T00:22:56.387Z,42.27
2017-02-17T00:23:29.168Z,42.36
2017-02-17T00:24:01.970Z,42.36
2017-02-17T00:24:34.740Z,42.17
2017-02-17T00:25:07.507Z,42.46
2017-02-17T00:25:40.276Z,42.17
2017-02-17T00:26:13.114Z,42.36
2017-02-17T00:26:45.896Z,42.36
2017-02-17T00:27:18.644Z,42.36
2017-02-17T00:27:51.426Z,42.36
2017-02-17T00:28:24.193Z,42.36
2017-02-17T00:28:56.956Z,42.17
2017-02-17T00:29:29.725Z,42.07
2017-02-17T00:30:02.512Z,42.27
2017-02-17T00:30:35.271Z,42.46
2017-02-17T00:31:08.042Z,42.38
2017-02-17T00:31:40.830Z,42.36
2017-02-17T00:32:13.601Z,42.46
2017-02-17T00:32:46.390Z,42.36
2017-02-17T00:33:19.164Z,42.46
2017-02-17T00:33:51.955Z,42.17
2017-02-17T00:34:24.711Z,42.36
2017-02-17T00:34:57.512Z,42.38
2017-02-17T00:35:30.300Z,42.27
2017-02-17T00:36:03.083Z,42.55
2017-02-17T00:36:35.880Z,42.36
2017-02-17T00:37:08.652Z,42.27
2017-02-17T00:37:41.414Z,42.17
2017-02-17T00:38:14.190Z,42.17
2017-02-17T00:38:47.011Z,42.46
2017-02-17T00:39:19.782Z,42.36
2017-02-17T00:39:52.576Z,42.46
2017-02-17T00:40:25.337Z,42.55
2017-02-17T00:40:58.104Z,42.27
2017-02-17T00:41:30.904Z,42.36
2017-02-17T00:42:03.667Z,42.55
2017-02-17T00:42:36.423Z,42.27
2017-02-17T00:43:09.196Z,42.46
2017-02-17T00:43:41.953Z,42.36
2017-02-17T00:44:14.742Z,42.36
2017-02-17T00:44:47.526Z,42.46
2017-02-17T00:45:20.324Z,42.17
2017-02-17T00:45:53.137Z,42.27
2017-02-17T00:46:25.901Z,42.36
2017-02-17T00:46:58.684Z,42.46
2017-02-17T00:47:31.462Z,42.27
2017-02-17T00:48:04.228Z,42.46
2017-02-17T00:48:36.996Z,42.46
2017-02-17T00:49:09.767Z,42.55
2017-02-17T00:49:42.539Z,42.55
2017-02-17T00:50:15.318Z,42.17
2017-02-17T00:50:48.082Z,42.46
2017-02-17T00:51:20.837Z,42.36
2017-02-17T00:51:53.614Z,42.46
2017-02-17T00:52:26.428Z,42.36
2017-02-17T00:52:59.214Z,42.55
2017-02-17T00:53:31.975Z,42.46
2017-02-17T00:54:04.747Z,42.36
2017-02-17T00:54:37.529Z,42.36
2017-02-17T00:55:10.288Z,42.46
2017-02-17T00:55:43.067Z,42.46
2017-02-17T00:56:15.827Z,42.36
2017-02-17T00:56:48.606Z,42.46
2017-02-17T00:57:21.390Z,42.46
2017-02-17T00:57:54.200Z,42.46
2017-02-17T00:58:26.998Z,42.46
2017-02-17T00:58:59.768Z,42.46
2017-02-17T00:59:32.546Z,42.46
2017-02-17T01:00:05.439Z,42.55
2017-02-17T01:00:38.219Z,42.46
2017-02-17T01:01:11.003Z,42.65
2017-02-17T01:01:43.789Z,42.46
2017-02-17T01:02:16.538Z,42.46
2017-02-17T01:02:49.305Z,42.46
2017-02-17T01:03:22.059Z,42.46
2017-02-17T01:03:54.835Z,42.46
2017-02-17T01:04:27.660Z,42.46
2017-02-17T01:05:00.429Z,42.55
2017-02-17T01:05:33.198Z,42.55
2017-02-17T01:06:06.068Z,42.46
2017-02-17T01:06:38.874Z,42.55
2017-02-17T01:07:11.654Z,42.55
2017-02-17T01:07:44.424Z,42.55
2017-02-17T01:08:17.192Z,42.55
2017-02-17T01:08:49.977Z,42.55
2017-02-17T01:09:22.752Z,42.55
2017-02-17T01:09:55.546Z,42.46
2017-02-17T01:10:28.323Z,42.55
2017-02-17T01:11:01.098Z,42.74
2017-02-17T01:11:33.888Z,42.55
2017-02-17T01:12:06.653Z,42.55
2017-02-17T01:12:39.438Z,42.65
2017-02-17T01:13:12.248Z,42.74
2017-02-17T01:13:45.015Z,42.55
2017-02-17T01:14:17.793Z,42.55
2017-02-17T01:14:50.558Z,42.74
2017-02-17T01:15:23.357Z,42.55
2017-02-17T01:15:56.122Z,42.55
2017-02-17T01:16:28.912Z,42.74
2017-02-17T01:17:01.714Z,42.65
2017-02-17T01:17:34.492Z,42.65
2017-02-17T01:18:07.266Z,42.27
2017-02-17T01:18:40.041Z,42.65
2017-02-17T01:19:12.799Z,42.46
2017-02-17T01:19:45.611Z,42.65
2017-02-17T01:20:18.377Z,42.65
2017-02-17T01:20:51.126Z,42.65
2017-02-17T01:21:23.906Z,42.84
2017-02-17T01:21:56.711Z,42.65
2017-02-17T01:22:29.511Z,42.55
2017-02-17T01:23:02.327Z,42.65
2017-02-17T01:23:35.114Z,42.65
2017-02-17T01:24:07.918Z,42.65
2017-02-17T01:24:40.704Z,42.65
2017-02-17T01:25:13.500Z,42.65
2017-02-17T01:25:46.303Z,42.65
2017-02-17T01:26:19.071Z,42.46
2017-02-17T01:26:51.819Z,42.84
2017-02-17T01:27:24.606Z,42.65
2017-02-17T01:27:57.403Z,42.84
2017-02-17T01:28:30.172Z,42.46
2017-02-17T01:29:02.941Z,42.55
2017-02-17T01:29:35.742Z,42.84
2017-02-17T01:30:08.514Z,42.46
2017-02-17T01:30:41.265Z,42.84
2017-02-17T01:31:14.057Z,42.55
2017-02-17T01:31:46.834Z,42.65
2017-02-17T01:32:19.607Z,42.65
2017-02-17T01:32:52.398Z,42.65
2017-02-17T01:33:25.181Z,42.65
2017-02-17T01:33:57.960Z,42.55
2017-02-17T01:34:30.742Z,42.36
2017-02-17T01:35:03.517Z,42.65
2017-02-17T01:35:36.291Z,42.74
2017-02-17T01:36:09.067Z,42.46
2017-02-17T01:36:41.822Z,42.65
2017-02-17T01:37:14.587Z,42.65
2017-02-17T01:37:47.362Z,42.55
2017-02-17T01:38:20.141Z,42.74
2017-02-17T01:38:52.893Z,42.55
2017-02-17T01:39:25.659Z,42.36
2017-02-17T01:39:58.419Z,42.74
2017-02-17T01:40:31.182Z,42.74
2017-02-17T01:41:03.963Z,42.74
2017-02-17T01:41:36.735Z,42.94
2017-02-17T01:42:09.483Z,42.36
2017-02-17T01:42:42.258Z,42.74
2017-02-17T01:43:15.051Z,42.36
2017-02-17T01:43:47.822Z,42.74
2017-02-17T01:44:20.587Z,42.46
2017-02-17T01:44:53.355Z,42.36
2017-02-17T01:45:26.144Z,42.65
2017-02-17T01:45:58.908Z,42.57
2017-02-17T01:46:31.675Z,42.55
2017-02-17T01:47:04.447Z,42.46
2017-02-17T01:47:37.209Z,42.55
2017-02-17T01:48:09.971Z,42.74
2017-02-17T01:48:42.737Z,42.55
2017-02-17T01:49:15.509Z,42.55
2017-02-17T01:49:48.313Z,42.74
2017-02-17T01:50:21.098Z,42.38
2017-02-17T01:50:53.867Z,42.67
2017-02-17T01:51:26.663Z,42.94
2017-02-17T01:51:59.492Z,42.46
2017-02-17T01:52:32.264Z,42.36
2017-02-17T01:53:05.039Z,42.46
2017-02-17T01:53:37.797Z,42.57
2017-02-17T01:54:10.552Z,42.36
2017-02-17T01:54:43.335Z,42.38
2017-02-17T01:55:16.105Z,42.46
2017-02-17T01:55:48.889Z,42.47
2017-02-17T01:56:21.675Z,42.46
2017-02-17T01:56:54.474Z,42.77
2017-02-17T01:57:27.259Z,42.86
2017-02-17T01:58:00.026Z,42.36
2017-02-17T01:58:32.796Z,42.77
2017-02-17T01:59:05.571Z,42.46
2017-02-17T01:59:38.355Z,42.36
2017-02-17T02:00:11.121Z,42.74
2017-02-17T02:00:43.901Z,42.38
2017-02-17T02:01:16.663Z,42.38
2017-02-17T02:01:49.441Z,42.47
2017-02-17T02:02:22.228Z,42.47
2017-02-17T02:02:55.005Z,42.77
2017-02-17T02:03:27.769Z,42.47
2017-02-17T02:04:00.575Z,42.67
2017-02-17T02:04:33.383Z,42.77
2017-02-17T02:05:06.144Z,42.77
2017-02-17T02:05:38.908Z,42.77
2017-02-17T02:06:11.694Z,42.94
2017-02-17T02:06:44.508Z,42.47
2017-02-17T02:07:17.273Z,42.47
2017-02-17T02:07:50.032Z,42.47
2017-02-17T02:08:22.790Z,42.77
2017-02-17T02:08:55.592Z,42.96
2017-02-17T02:09:28.367Z,42.47
2017-02-17T02:10:01.140Z,42.47
2017-02-17T02:10:33.911Z,42.77
2017-02-17T02:11:06.683Z,42.47
2017-02-17T02:11:39.477Z,42.96
2017-02-17T02:12:12.248Z,42.57
2017-02-17T02:12:45.015Z,42.57
2017-02-17T02:13:17.775Z,42.57
2017-02-17T02:13:50.542Z,42.77
2017-02-17T02:14:23.348Z,42.38
2017-02-17T02:14:56.129Z,42.77
2017-02-17T02:15:28.917Z,42.57
2017-02-17T02:16:01.703Z,42.38
2017-02-17T02:16:34.481Z,42.47
2017-02-17T02:17:07.264Z,42.77
2017-02-17T02:17:40.047Z,42.96
2017-02-17T02:18:12.837Z,42.77
2017-02-17T02:18:45.604Z,42.47
2017-02-17T02:19:18.376Z,42.38
2017-02-17T02:19:51.146Z,42.38
2017-02-17T02:20:23.942Z,42.47
2017-02-17T02:20:56.720Z,42.77
2017-02-17T02:21:29.487Z,42.47
2017-02-17T02:22:02.311Z,42.86
2017-02-17T02:22:35.608Z,42.38
2017-02-17T02:23:08.369Z,42.47
2017-02-17T02:23:41.158Z,42.47
2017-02-17T02:24:13.918Z,42.36
2017-02-17T02:24:46.723Z,42.47
2017-02-17T02:25:19.530Z,42.77
2017-02-17T02:25:52.305Z,42.38
2017-02-17T02:26:25.056Z,42.38
2017-02-17T02:26:57.849Z,42.47
2017-02-17T02:27:30.618Z,42.47
2017-02-17T02:28:03.403Z,42.96
2017-02-17T02:28:36.219Z,42.57
2017-02-17T02:29:09.002Z,42.67
2017-02-17T02:29:41.806Z,42.47
2017-02-17T02:30:14.623Z,42.77
2017-02-17T02:30:47.389Z,42.96
2017-02-17T02:31:20.154Z,42.77
2017-02-17T02:31:52.939Z,42.47
2017-02-17T02:32:25.700Z,42.77
2017-02-17T02:32:58.480Z,42.38
2017-02-17T02:33:31.250Z,42.77
2017-02-17T02:34:04.006Z,42.77
2017-02-17T02:34:36.790Z,42.77
2017-02-17T02:35:09.560Z,42.77
2017-02-17T02:35:42.346Z,42.96
2017-02-17T02:36:15.128Z,42.47
2017-02-17T02:36:47.935Z,42.38
2017-02-17T02:37:20.687Z,42.77
2017-02-17T02:37:53.446Z,42.47
2017-02-17T02:38:26.248Z,42.77
2017-02-17T02:38:59.029Z,42.47
2017-02-17T02:39:31.805Z,42.47
2017-02-17T02:40:04.579Z,42.47
2017-02-17T02:40:37.341Z,42.77
2017-02-17T02:41:10.104Z,42.77
2017-02-17T02:41:42.915Z,42.67
2017-02-17T02:42:15.672Z,42.96
2017-02-17T02:42:48.442Z,42.96
2017-02-17T02:43:21.227Z,42.47
2017-02-17T02:43:54.006Z,42.77
2017-02-17T02:44:26.764Z,42.77
2017-02-17T02:44:59.539Z,42.57
2017-02-17T02:45:32.310Z,42.38
2017-02-17T02:46:05.092Z,42.77
2017-02-17T02:46:37.860Z,42.77
2017-02-17T02:47:10.630Z,42.77
2017-02-17T02:47:43.439Z,42.57
2017-02-17T02:48:16.209Z,42.57
2017-02-17T02:48:48.993Z,42.47
2017-02-17T02:49:21.777Z,42.77
2017-02-17T02:49:54.562Z,42.47
2017-02-17T02:50:27.322Z,42.38
2017-02-17T02:51:00.068Z,42.77
2017-02-17T02:51:32.839Z,42.96
2017-02-17T02:52:05.606Z,42.57
2017-02-17T02:52:38.377Z,42.96
2017-02-17T02:53:11.135Z,42.47
2017-02-17T02:53:43.898Z,42.57
2017-02-17T02:54:16.704Z,42.96
2017-02-17T02:54:49.496Z,42.47
2017-02-17T02:55:22.254Z,42.57
2017-02-17T02:55:55.036Z,42.67
2017-02-17T02:56:27.799Z,42.96
2017-02-17T02:57:00.592Z,42.86
2017-02-17T02:57:33.370Z,42.38
2017-02-17T02:58:06.152Z,42.47
2017-02-17T02:58:38.919Z,42.96
2017-02-17T02:59:11.710Z,42.38
2017-02-17T02:59:44.483Z,42.96
2017-02-17T03:00:17.274Z,42.96
2017-02-17T03:00:50.050Z,42.96
2017-02-17T03:01:22.819Z,42.96
2017-02-17T03:01:55.595Z,42.47
2017-02-17T03:02:28.375Z,42.38
2017-02-17T03:03:01.143Z,42.57
2017-02-17T03:03:33.945Z,42.96
2017-02-17T03:04:06.713Z,42.57
2017-02-17T03:04:39.476Z,42.57
2017-02-17T03:05:12.251Z,42.47
2017-02-17T03:05:45.020Z,42.96
2017-02-17T03:06:17.795Z,42.47
2017-02-17T03:06:50.564Z,42.86
2017-02-17T03:07:23.366Z,42.96
2017-02-17T03:07:56.133Z,42.96
2017-02-17T03:08:28.900Z,42.77
2017-02-17T03:09:01.688Z,42.77
2017-02-17T03:09:34.472Z,42.67
2017-02-17T03:10:07.228Z,42.77
2017-02-17T03:10:39.983Z,42.77
2017-02-17T03:11:12.754Z,42.77
2017-02-17T03:11:45.535Z,42.57
2017-02-17T03:12:18.304Z,42.47
2017-02-17T03:12:51.087Z,42.47
2017-02-17T03:13:23.853Z,42.47
2017-02-17T03:13:56.606Z,42.57
2017-02-17T03:14:29.367Z,42.96
2017-02-17T03:15:02.172Z,42.67
2017-02-17T03:15:34.969Z,42.57
2017-02-17T03:16:07.738Z,42.77
2017-02-17T03:16:40.512Z,42.67
2017-02-17T03:17:13.294Z,42.77
2017-02-17T03:17:46.100Z,42.77
2017-02-17T03:18:18.873Z,42.67
2017-02-17T03:18:51.639Z,42.67
2017-02-17T03:19:24.469Z,42.67
2017-02-17T03:19:57.236Z,42.77
2017-02-17T03:20:29.984Z,42.57
2017-02-17T03:21:02.738Z,42.57
2017-02-17T03:21:35.508Z,42.67
2017-02-17T03:22:08.274Z,42.57
2017-02-17T03:22:41.057Z,42.67
2017-02-17T03:23:13.841Z,42.57
2017-02-17T03:23:46.658Z,42.77
2017-02-17T03:24:19.564Z,42.67
2017-02-17T03:24:52.342Z,42.67
2017-02-17T03:25:25.095Z,42.86
2017-02-17T03:25:57.881Z,42.57
2017-02-17T03:26:30.647Z,42.57
2017-02-17T03:27:03.433Z,42.77
2017-02-17T03:27:36.205Z,42.57
2017-02-17T03:28:08.972Z,42.57
2017-02-17T03:28:41.740Z,42.67
2017-02-17T03:29:14.533Z,42.57
2017-02-17T03:29:47.293Z,42.67
2017-02-17T03:30:20.085Z,42.77
2017-02-17T03:30:52.865Z,42.47
2017-02-17T03:31:25.661Z,42.67
2017-02-17T03:31:58.477Z,42.57
2017-02-17T03:32:31.248Z,42.67
2017-02-17T03:33:04.026Z,42.57
2017-02-17T03:33:36.801Z,42.67
2017-02-17T03:34:09.567Z,42.57
2017-02-17T03:34:42.344Z,42.57
2017-02-17T03:35:15.132Z,42.67
2017-02-17T03:35:47.905Z,42.67
2017-02-17T03:36:20.681Z,42.47
2017-02-17T03:36:53.507Z,42.67
2017-02-17T03:37:26.281Z,42.67
2017-02-17T03:37:59.038Z,42.67
2017-02-17T03:38:31.816Z,42.47
2017-02-17T03:39:04.593Z,42.67
2017-02-17T03:39:37.351Z,42.57
2017-02-17T03:40:10.119Z,42.67
2017-02-17T03:40:42.905Z,42.67
2017-02-17T03:41:15.665Z,42.57
2017-02-17T03:41:48.427Z,42.57
2017-02-17T03:42:21.209Z,42.67
2017-02-17T03:42:53.955Z,42.47
2017-02-17T03:43:26.713Z,42.67
2017-02-17T03:43:59.478Z,42.57
2017-02-17T03:44:32.263Z,42.47
2017-02-17T03:45:05.012Z,42.86
2017-02-17T03:45:37.768Z,42.67
2017-02-17T03:46:10.529Z,42.47
2017-02-17T03:46:43.295Z,42.57
2017-02-17T03:47:16.075Z,42.67
2017-02-17T03:47:48.851Z,42.77
2017-02-17T03:48:21.652Z,42.67
2017-02-17T03:48:54.418Z,42.57
2017-02-17T03:49:27.195Z,42.57
2017-02-17T03:49:59.960Z,42.57
2017-02-17T03:50:32.722Z,42.67
2017-02-17T03:51:05.481Z,42.67
2017-02-17T03:51:38.235Z,42.67
2017-02-17T03:52:10.993Z,42.47
2017-02-17T03:52:43.796Z,42.47
2017-02-17T03:53:16.574Z,42.57
2017-02-17T03:53:49.336Z,42.67
2017-02-17T03:54:22.127Z,42.67
2017-02-17T03:54:54.900Z,42.57
2017-02-17T03:55:27.659Z,42.57
2017-02-17T03:56:00.435Z,42.77
2017-02-17T03:56:33.206Z,42.57
2017-02-17T03:57:05.968Z,42.57
2017-02-17T03:57:38.733Z,42.77
2017-02-17T03:58:11.521Z,42.67
2017-02-17T03:58:44.280Z,42.67
2017-02-17T03:59:17.049Z,42.67
2017-02-17T03:59:49.805Z,42.77
2017-02-17T04:00:22.578Z,42.67
2017-02-17T04:00:55.343Z,42.77
2017-02-17T04:01:28.137Z,42.57
2017-02-17T04:02:00.912Z,42.77
2017-02-17T04:02:33.695Z,42.77
2017-02-17T04:03:06.489Z,42.67
2017-02-17T04:03:39.254Z,42.67
2017-02-17T04:04:12.015Z,42.77
2017-02-17T04:04:44.788Z,42.77
2017-02-17T04:05:17.545Z,42.57
2017-02-17T04:05:50.307Z,42.67
2017-02-17T04:06:23.091Z,42.67
2017-02-17T04:06:55.859Z,42.67
2017-02-17T04:07:28.644Z,42.77
2017-02-17T04:08:01.407Z,42.67
2017-02-17T04:08:34.220Z,42.67
2017-02-17T04:09:06.966Z,42.67
2017-02-17T04:09:39.729Z,42.67
2017-02-17T04:10:12.513Z,42.57
2017-02-17T04:10:45.294Z,42.67
2017-02-17T04:11:18.049Z,42.67
2017-02-17T04:11:50.835Z,42.86
2017-02-17T04:12:23.578Z,42.57
2017-02-17T04:12:56.369Z,42.67
2017-02-17T04:13:29.151Z,42.67
2017-02-17T04:14:01.937Z,42.67
2017-02-17T04:14:34.722Z,42.77
2017-02-17T04:15:07.511Z,42.57
2017-02-17T04:15:40.279Z,42.67
2017-02-17T04:16:13.079Z,42.86
2017-02-17T04:16:45.846Z,42.67
2017-02-17T04:17:18.650Z,42.67
2017-02-17T04:17:51.458Z,42.67
2017-02-17T04:18:24.220Z,42.67
2017-02-17T04:18:56.997Z,42.86
2017-02-17T04:19:29.761Z,42.67
2017-02-17T04:20:02.535Z,42.86
2017-02-17T04:20:35.326Z,42.77
2017-02-17T04:21:08.127Z,42.67
2017-02-17T04:21:40.922Z,42.67
2017-02-17T04:22:13.712Z,42.86
2017-02-17T04:22:46.487Z,42.67
2017-02-17T04:23:19.298Z,42.57
2017-02-17T04:23:52.069Z,42.77
2017-02-17T04:24:24.840Z,42.86
2017-02-17T04:24:57.615Z,42.77
2017-02-17T04:25:30.393Z,42.57
2017-02-17T04:26:03.159Z,42.77
2017-02-17T04:26:35.926Z,42.67
2017-02-17T04:27:08.697Z,42.77
2017-02-17T04:27:41.459Z,42.77
2017-02-17T04:28:14.246Z,42.86
2017-02-17T04:28:47.013Z,42.77
2017-02-17T04:29:19.776Z,42.77
2017-02-17T04:29:52.527Z,42.77
2017-02-17T04:30:25.291Z,42.57
2017-02-17T04:30:58.035Z,42.57
2017-02-17T04:31:30.797Z,42.67
2017-02-17T04:32:03.571Z,42.86
2017-02-17T04:32:36.388Z,42.57
2017-02-17T04:33:09.149Z,42.77
2017-02-17T04:33:41.924Z,42.67
2017-02-17T04:34:14.669Z,42.77
2017-02-17T04:34:47.448Z,42.77
2017-02-17T04:35:20.239Z,42.47
2017-02-17T04:35:52.991Z,42.96
2017-02-17T04:36:25.775Z,42.77
2017-02-17T04:36:58.536Z,42.96
2017-02-17T04:37:31.341Z,42.86
2017-02-17T04:38:04.098Z,42.77
2017-02-17T04:38:36.896Z,42.86
2017-02-17T04:39:09.660Z,42.57
2017-02-17T04:39:42.432Z,42.67
2017-02-17T04:40:15.267Z,42.67
2017-02-17T04:40:48.055Z,42.77
2017-02-17T04:41:20.840Z,42.77
2017-02-17T04:41:53.619Z,42.77
2017-02-17T04:42:26.399Z,42.77
2017-02-17T04:42:59.153Z,42.67
2017-02-17T04:43:31.929Z,42.77
2017-02-17T04:44:04.685Z,42.86
2017-02-17T04:44:37.449Z,42.67
2017-02-17T04:45:10.254Z,42.86
2017-02-17T04:45:43.015Z,42.96
2017-02-17T04:46:15.792Z,42.77
2017-02-17T04:46:48.569Z,42.77
2017-02-17T04:47:21.356Z,42.67
2017-02-17T04:47:54.095Z,42.67
2017-02-17T04:48:26.891Z,42.67
2017-02-17T04:48:59.654Z,42.86
2017-02-17T04:49:32.422Z,42.77
2017-02-17T04:50:05.186Z,42.96
2017-02-17T04:50:37.967Z,42.77
2017-02-17T04:51:10.821Z,42.96
2017-02-17T04:51:43.610Z,42.86
2017-02-17T04:52:16.412Z,43.05
2017-02-17T04:52:49.185Z,42.77
2017-02-17T04:53:21.958Z,42.77
2017-02-17T04:53:54.720Z,42.77
2017-02-17T04:54:27.469Z,42.77
2017-02-17T04:55:00.271Z,42.77
2017-02-17T04:55:33.040Z,42.96
2017-02-17T04:56:05.807Z,42.86
2017-02-17T04:56:38.569Z,42.86
2017-02-17T04:57:11.333Z,42.86
2017-02-17T04:57:44.124Z,42.96
2017-02-17T04:58:16.920Z,42.86
2017-02-17T04:58:49.688Z,42.86
2017-02-17T04:59:22.477Z,42.96
2017-02-17T04:59:55.239Z,42.96
2017-02-17T05:00:28.002Z,42.86
2017-02-17T05:01:00.771Z,42.96
2017-02-17T05:01:33.576Z,43.05
2017-02-17T05:02:07.214Z,42.96
2017-02-17T05:02:39.989Z,43.15
2017-02-17T05:03:12.747Z,43.15
2017-02-17T05:03:45.519Z,43.05
2017-02-17T05:04:18.307Z,42.96
2017-02-17T05:04:51.070Z,43.15
2017-02-17T05:05:23.826Z,43.15
2017-02-17T05:05:56.630Z,42.96
2017-02-17T05:06:29.391Z,42.77
2017-02-17T05:07:02.153Z,42.77
2017-02-17T05:07:34.920Z,43.05
2017-02-17T05:08:07.701Z,42.79
2017-02-17T05:08:40.476Z,42.88
2017-02-17T05:09:13.291Z,42.77
2017-02-17T05:09:46.033Z,43.07
2017-02-17T05:10:18.805Z,43.15
2017-02-17T05:10:51.618Z,42.86
2017-02-17T05:11:24.385Z,42.96
2017-02-17T05:11:57.153Z,43.24
2017-02-17T05:12:29.902Z,43.05
2017-02-17T05:13:02.692Z,43.15
2017-02-17T05:13:35.476Z,43.05
2017-02-17T05:14:08.247Z,42.96
2017-02-17T05:14:41.030Z,43.15
2017-02-17T05:15:13.826Z,42.96
2017-02-17T05:15:46.600Z,43.24
2017-02-17T05:16:19.378Z,43.05
2017-02-17T05:16:52.162Z,43.05
2017-02-17T05:17:24.932Z,43.34
2017-02-17T05:17:57.750Z,43.07
2017-02-17T05:18:30.518Z,43.05
2017-02-17T05:19:03.291Z,43.34
2017-02-17T05:19:36.091Z,43.15
2017-02-17T05:20:08.872Z,43.05
2017-02-17T05:20:41.618Z,43.05
2017-02-17T05:21:14.528Z,43.24
2017-02-17T05:21:47.309Z,43.17
2017-02-17T05:22:20.070Z,43.15
2017-02-17T05:22:52.839Z,43.15
2017-02-17T05:23:25.619Z,43.24
2017-02-17T05:23:58.377Z,43.15
2017-02-17T05:24:31.279Z,43.15
2017-02-17T05:25:04.154Z,43.15
2017-02-17T05:25:37.810Z,43.24
2017-02-17T05:26:10.567Z,43.24
2017-02-17T05:26:43.350Z,43.07
2017-02-17T05:27:16.130Z,43.24
2017-02-17T05:27:48.908Z,43.24
2017-02-17T05:28:21.663Z,43.36
2017-02-17T05:28:54.446Z,43.24
2017-02-17T05:29:27.226Z,42.88
2017-02-17T05:30:00.101Z,43.05
2017-02-17T05:30:32.916Z,42.86
2017-02-17T05:31:05.695Z,42.86
2017-02-17T05:31:38.482Z,43.24
2017-02-17T05:32:11.261Z,43.05
2017-02-17T05:32:44.047Z,42.86
2017-02-17T05:33:16.818Z,43.05
2017-02-17T05:33:49.595Z,42.86
2017-02-17T05:34:22.347Z,42.96
2017-02-17T05:34:55.127Z,42.96
2017-02-17T05:35:27.895Z,42.96
2017-02-17T05:36:00.655Z,42.96
2017-02-17T05:36:33.476Z,43.24
2017-02-17T05:37:06.282Z,43.24
2017-02-17T05:37:39.077Z,42.96
2017-02-17T05:38:11.858Z,43.24
2017-02-17T05:38:44.648Z,42.86
2017-02-17T05:39:17.423Z,43.24
2017-02-17T05:39:50.199Z,43.05
2017-02-17T05:40:22.992Z,42.88
2017-02-17T05:40:55.766Z,43.05
2017-02-17T05:41:28.520Z,43.05
2017-02-17T05:42:01.308Z,43.17
2017-02-17T05:42:34.114Z,42.96
2017-02-17T05:43:06.875Z,43.34
2017-02-17T05:43:39.647Z,43.44
2017-02-17T05:44:12.421Z,43.05
2017-02-17T05:44:45.186Z,42.98
2017-02-17T05:45:17.960Z,43.17
2017-02-17T05:45:50.748Z,42.96
2017-02-17T05:46:23.565Z,43.15
2017-02-17T05:46:56.412Z,43.05
2017-02-17T05:47:29.182Z,43.05
2017-02-17T05:48:01.971Z,43.05
2017-02-17T05:48:34.759Z,42.96
2017-02-17T05:49:07.538Z,42.96
2017-02-17T05:49:40.334Z,43.05
2017-02-17T05:50:13.106Z,43.44
2017-02-17T05:50:45.869Z,42.88
2017-02-17T05:51:18.651Z,43.15
2017-02-17T05:51:52.144Z,42.98
2017-02-17T05:52:24.940Z,43.15
2017-02-17T05:52:57.750Z,43.15
2017-02-17T05:53:30.517Z,43.05
2017-02-17T05:54:03.339Z,43.05
2017-02-17T05:54:36.108Z,42.98
2017-02-17T05:55:08.864Z,43.15
2017-02-17T05:55:41.651Z,42.96
2017-02-17T05:56:14.415Z,43.17
2017-02-17T05:56:47.170Z,42.96
2017-02-17T05:57:19.966Z,43.05
2017-02-17T05:57:52.745Z,43.07
2017-02-17T05:58:25.539Z,43.05
2017-02-17T05:58:58.290Z,43.15
2017-02-17T05:59:31.105Z,43.05
2017-02-17T06:00:03.889Z,42.96
2017-02-17T06:00:36.665Z,42.96
2017-02-17T06:01:09.419Z,43.15
2017-02-17T06:01:42.184Z,43.05
2017-02-17T06:02:14.962Z,43.05
2017-02-17T06:02:47.715Z,42.98
2017-02-17T06:03:20.474Z,43.05
2017-02-17T06:03:53.256Z,43.07
2017-02-17T06:04:26.038Z,42.96
2017-02-17T06:04:58.802Z,43.15
2017-02-17T06:05:32.159Z,43.05
2017-02-17T06:06:04.934Z,43.17
2017-02-17T06:06:37.701Z,43.24
2017-02-17T06:07:10.472Z,43.24
2017-02-17T06:07:43.243Z,42.96
2017-02-17T06:08:16.020Z,43.24
2017-02-17T06:08:48.783Z,43.05
2017-02-17T06:09:21.553Z,43.15
2017-02-17T06:09:54.355Z,42.96
2017-02-17T06:10:27.133Z,43.17
2017-02-17T06:10:59.919Z,43.07
2017-02-17T06:11:32.706Z,43.24
2017-02-17T06:12:05.489Z,43.05
2017-02-17T06:12:38.268Z,43.05
2017-02-17T06:13:11.038Z,42.96
2017-02-17T06:13:43.807Z,42.96
2017-02-17T06:14:16.567Z,42.98
2017-02-17T06:14:49.340Z,43.05
2017-02-17T06:15:22.106Z,43.17
2017-02-17T06:15:54.867Z,43.05
2017-02-17T06:16:27.644Z,43.05
2017-02-17T06:17:00.403Z,42.96
2017-02-17T06:17:33.174Z,42.96
2017-02-17T06:18:05.949Z,43.24
2017-02-17T06:18:38.749Z,43.17
2017-02-17T06:19:11.558Z,43.15
2017-02-17T06:19:44.361Z,43.34
2017-02-17T06:20:17.141Z,43.24
2017-02-17T06:20:49.917Z,43.24
2017-02-17T06:21:22.691Z,43.05
2017-02-17T06:21:57.296Z,43.24
2017-02-17T06:22:30.777Z,43.34
2017-02-17T06:23:03.552Z,43.36
2017-02-17T06:23:36.310Z,43.53
2017-02-17T06:24:09.111Z,43.07
2017-02-17T06:24:41.914Z,43.46
2017-02-17T06:25:14.688Z,43.44
2017-02-17T06:25:47.465Z,43.36
2017-02-17T06:26:20.222Z,43.34
2017-02-17T06:26:52.995Z,43.34
2017-02-17T06:27:25.759Z,43.34
2017-02-17T06:27:58.510Z,43.34
2017-02-17T06:28:31.278Z,43.44
2017-02-17T06:29:04.076Z,43.34
2017-02-17T06:30:56.331Z,43.34
2017-02-17T06:31:29.106Z,43.24
2017-02-17T06:32:01.893Z,42.96
2017-02-17T06:32:34.637Z,43.36
2017-02-17T06:33:07.405Z,43.07
2017-02-17T06:33:40.170Z,43.05
2017-02-17T06:34:12.978Z,43.46
2017-02-17T06:34:45.751Z,43.15
2017-02-17T06:35:18.534Z,43.34
2017-02-17T06:35:51.309Z,43.36
2017-02-17T06:36:24.088Z,42.96
2017-02-17T06:36:56.878Z,43.17
2017-02-17T06:37:29.653Z,43.36
2017-02-17T06:38:02.408Z,42.98
2017-02-17T06:38:35.191Z,43.36
2017-02-17T06:39:07.965Z,43.27
2017-02-17T06:41:00.231Z,43.53
2017-02-17T06:41:32.988Z,43.15
2017-02-17T06:42:05.749Z,43.17
2017-02-17T06:42:38.551Z,43.27
2017-02-17T06:43:11.339Z,43.17
2017-02-17T06:43:44.100Z,43.36
2017-02-17T06:44:16.868Z,43.36
2017-02-17T06:44:49.659Z,43.36
2017-02-17T06:45:22.419Z,43.46
2017-02-17T06:45:55.224Z,43.27
2017-02-17T06:46:28.045Z,43.46
2017-02-17T06:47:00.826Z,43.55
2017-02-17T06:47:33.593Z,43.36
2017-02-17T06:48:06.397Z,43.36
2017-02-17T06:48:39.166Z,43.34
2017-02-17T06:49:11.926Z,43.46
2017-02-17T06:49:44.690Z,43.46
2017-02-17T06:50:17.447Z,43.46
2017-02-17T06:50:50.234Z,43.46
2017-02-17T06:51:23.005Z,43.65
2017-02-17T06:51:55.818Z,43.17
2017-02-17T06:52:28.583Z,43.07
2017-02-17T06:53:01.349Z,43.36
2017-02-17T06:53:34.119Z,43.65
2017-02-17T06:54:06.905Z,43.84
2017-02-17T06:54:39.697Z,43.17
2017-02-17T06:55:12.494Z,43.84
2017-02-17T06:55:45.261Z,43.27
2017-02-17T06:56:18.066Z,43.84
2017-02-17T06:56:50.833Z,43.36
2017-02-17T06:57:23.597Z,43.84
2017-02-17T06:57:56.748Z,43.74
2017-02-17T06:58:29.527Z,43.74
2017-02-17T06:59:02.316Z,43.65
2017-02-17T06:59:35.094Z,43.74
2017-02-17T07:05:09.206Z,43.55
2017-02-17T07:05:42.393Z,43.65
2017-02-17T07:06:28.127Z,43.55
2017-02-17T07:09:12.227Z,43.74
2017-02-17T07:12:58.167Z,43.55
2017-02-17T07:16:48.117Z,43.74
2017-02-17T07:17:21.058Z,43.46
2017-02-17T07:17:54.091Z,43.46
2017-02-17T07:18:28.132Z,43.55
2017-02-17T07:19:02.359Z,43.27